Brussels, Belgium

6:04 AM CET on December 11, 2016 (GMT +0100)
Brussels | | Change Station

Elev 190 ft 50.90 °N, 4.53 °E | Updated 14 minutes ago

Clear
Clear
45 °F
Feels Like 40 °F
N
9
Wind Variable Wind from West

Today
High -- | Low -- °F
--% Chance of Precip.
Yesterday
High -- | Low -- °F
Precip. -- in
Pressure 30.15 in
Visibility 6.2 miles
Clouds Few 1300 ft
Windchill 40 °F
Dew Point 43 °F
Humidity 93%
Rainfall 0.00 in
Snow Depth Not available.
8:34 AM 4:35 PM
Waxing Gibbous, 89% visible
METAR EBBR 110450Z 27008KT 9999 FEW013 07/06 Q1021 NOSIG
Pressure 30.15 in
Visibility 6.2 miles
Clouds Few 1300 ft
Windchill 40 °F
Dew Point 43 °F
Humidity 93%
Rainfall 0.00 in
Snow Depth Not available.
8:34 AM 4:35 PM
Waxing Gibbous, 89% visible
METAR EBBR 110450Z 27008KT 9999 FEW013 07/06 Q1021 NOSIG

10-Day Weather Forecast

×

Almanac

Astronomy

Dec. 11, 2016 Rise Set
Actual Time
Civil Twilight
Nautical Twilight
Astronomical Twilight
Moon
Length of Visible Light
Length of Day
Tomorrow will be .
, % of the Moon is Illuminated

Today's Extremes

Country Highs Country Lows

Community

WunderPhotos

Upload Photos

1,956,705 photos uploaded!

WunderBlog® & News

Nearby

Air Quality

  Air Quality AQ Index Pollutant
Not available.

Snow Depth

Station Depth Elevation

Earthquake Activity

City Distance Mag. Time & Date
Minimum magnitude displayed is 2.5.

Coastal Water Temperatures

Place Temperature

Stations

Nearby Weather Stations

Station Location Temp. Windchill Dew Point Humidity Wind Precip. Elev Updated Type